sensor_id;sensor_type;location;lat;lon;timestamp;P1;durP1;ratioP1;P2;durP2;ratioP2
38023;SDS011;23834;48.080;11.682;2023-05-23T00:01:48;5.83;;;5.27;;
38023;SDS011;23834;48.080;11.682;2023-05-23T00:04:14;5.73;;;5.13;;
38023;SDS011;23834;48.080;11.682;2023-05-23T00:06:42;6.03;;;5.40;;
38023;SDS011;23834;48.080;11.682;2023-05-23T00:09:11;6.40;;;5.80;;
38023;SDS011;23834;48.080;11.682;2023-05-23T00:11:36;5.63;;;5.00;;
38023;SDS011;23834;48.080;11.682;2023-05-23T00:14:01;5.73;;;5.20;;
38023;SDS011;23834;48.080;11.682;2023-05-23T00:16:26;5.40;;;5.00;;
38023;SDS011;23834;48.080;11.682;2023-05-23T00:18:52;7.73;;;5.70;;
38023;SDS011;23834;48.080;11.682;2023-05-23T00:21:17;5.83;;;5.40;;
38023;SDS011;23834;48.080;11.682;2023-05-23T00:23:42;5.83;;;4.97;;
38023;SDS011;23834;48.080;11.682;2023-05-23T00:26:10;5.53;;;5.03;;
38023;SDS011;23834;48.080;11.682;2023-05-23T00:28:36;5.57;;;5.07;;
38023;SDS011;23834;48.080;11.682;2023-05-23T00:31:01;5.70;;;5.20;;
38023;SDS011;23834;48.080;11.682;2023-05-23T00:33:26;5.77;;;5.27;;
38023;SDS011;23834;48.080;11.682;2023-05-23T00:35:53;5.53;;;5.03;;
38023;SDS011;23834;48.080;11.682;2023-05-23T00:38:19;5.90;;;5.30;;
38023;SDS011;23834;48.080;11.682;2023-05-23T00:40:44;5.70;;;5.20;;
38023;SDS011;23834;48.080;11.682;2023-05-23T00:43:09;6.13;;;5.53;;
38023;SDS011;23834;48.080;11.682;2023-05-23T00:45:34;5.00;;;4.60;;
38023;SDS011;23834;48.080;11.682;2023-05-23T00:48:00;5.60;;;5.17;;
38023;SDS011;23834;48.080;11.682;2023-05-23T00:50:25;6.13;;;5.53;;
38023;SDS011;23834;48.080;11.682;2023-05-23T00:52:53;6.17;;;5.67;;
38023;SDS011;23834;48.080;11.682;2023-05-23T00:55:19;5.80;;;5.30;;
38023;SDS011;23834;48.080;11.682;2023-05-23T00:57:44;6.20;;;5.57;;
38023;SDS011;23834;48.080;11.682;2023-05-23T01:00:12;5.53;;;5.13;;
38023;SDS011;23834;48.080;11.682;2023-05-23T01:02:40;5.93;;;5.10;;
38023;SDS011;23834;48.080;11.682;2023-05-23T01:05:07;6.00;;;5.40;;
38023;SDS011;23834;48.080;11.682;2023-05-23T01:07:33;6.57;;;5.80;;
38023;SDS011;23834;48.080;11.682;2023-05-23T01:09:58;5.70;;;5.20;;
38023;SDS011;23834;48.080;11.682;2023-05-23T01:14:58;5.90;;;5.30;;
38023;SDS011;23834;48.080;11.682;2023-05-23T01:17:26;5.73;;;5.23;;
38023;SDS011;23834;48.080;11.682;2023-05-23T01:20:00;5.97;;;5.47;;
38023;SDS011;23834;48.080;11.682;2023-05-23T01:25:15;5.57;;;5.03;;
38023;SDS011;23834;48.080;11.682;2023-05-23T01:27:56;5.57;;;5.07;;
38023;SDS011;23834;48.080;11.682;2023-05-23T01:30:24;6.20;;;5.60;;
38023;SDS011;23834;48.080;11.682;2023-05-23T01:32:52;5.83;;;5.33;;
38023;SDS011;23834;48.080;11.682;2023-05-23T01:35:21;5.90;;;5.23;;
38023;SDS011;23834;48.080;11.682;2023-05-23T01:37:47;5.80;;;5.30;;
38023;SDS011;23834;48.080;11.682;2023-05-23T01:40:12;5.83;;;5.33;;
38023;SDS011;23834;48.080;11.682;2023-05-23T01:42:37;6.83;;;6.23;;
38023;SDS011;23834;48.080;11.682;2023-05-23T01:45:03;5.23;;;4.83;;
38023;SDS011;23834;48.080;11.682;2023-05-23T01:47:28;6.30;;;5.70;;
38023;SDS011;23834;48.080;11.682;2023-05-23T01:49:53;5.90;;;5.33;;
38023;SDS011;23834;48.080;11.682;2023-05-23T01:52:20;5.43;;;5.03;;
38023;SDS011;23834;48.080;11.682;2023-05-23T01:54:45;5.80;;;5.30;;
38023;SDS011;23834;48.080;11.682;2023-05-23T01:57:12;6.30;;;5.70;;
38023;SDS011;23834;48.080;11.682;2023-05-23T01:59:38;6.23;;;5.23;;
38023;SDS011;23834;48.080;11.682;2023-05-23T02:02:03;6.33;;;5.57;;
38023;SDS011;23834;48.080;11.682;2023-05-23T02:04:28;5.47;;;4.97;;
38023;SDS011;23834;48.080;11.682;2023-05-23T02:06:54;6.07;;;5.57;;
38023;SDS011;23834;48.080;11.682;2023-05-23T02:09:19;5.90;;;5.30;;
38023;SDS011;23834;48.080;11.682;2023-05-23T02:11:45;5.90;;;5.40;;
38023;SDS011;23834;48.080;11.682;2023-05-23T02:14:10;6.27;;;5.67;;
38023;SDS011;23834;48.080;11.682;2023-05-23T02:16:35;6.03;;;5.53;;
38023;SDS011;23834;48.080;11.682;2023-05-23T02:19:01;6.10;;;5.53;;
38023;SDS011;23834;48.080;11.682;2023-05-23T02:21:26;6.00;;;5.40;;
38023;SDS011;23834;48.080;11.682;2023-05-23T02:23:51;5.73;;;5.23;;
38023;SDS011;23834;48.080;11.682;2023-05-23T02:26:16;6.03;;;5.43;;
38023;SDS011;23834;48.080;11.682;2023-05-23T02:28:42;5.70;;;5.13;;
38023;SDS011;23834;48.080;11.682;2023-05-23T02:31:07;6.43;;;5.83;;
38023;SDS011;23834;48.080;11.682;2023-05-23T02:33:32;5.73;;;5.33;;
38023;SDS011;23834;48.080;11.682;2023-05-23T02:35:57;6.00;;;5.53;;
38023;SDS011;23834;48.080;11.682;2023-05-23T02:38:22;5.10;;;4.70;;
38023;SDS011;23834;48.080;11.682;2023-05-23T02:40:48;5.80;;;5.20;;
38023;SDS011;23834;48.080;11.682;2023-05-23T02:43:14;5.83;;;5.30;;
38023;SDS011;23834;48.080;11.682;2023-05-23T02:45:39;5.67;;;5.17;;
38023;SDS011;23834;48.080;11.682;2023-05-23T02:48:05;5.90;;;5.40;;
38023;SDS011;23834;48.080;11.682;2023-05-23T02:50:30;6.10;;;5.60;;
38023;SDS011;23834;48.080;11.682;2023-05-23T02:52:55;5.50;;;5.00;;
38023;SDS011;23834;48.080;11.682;2023-05-23T02:55:20;5.63;;;5.13;;
38023;SDS011;23834;48.080;11.682;2023-05-23T02:57:46;6.43;;;5.17;;
38023;SDS011;23834;48.080;11.682;2023-05-23T03:00:11;5.93;;;5.50;;
38023;SDS011;23834;48.080;11.682;2023-05-23T03:02:37;6.20;;;5.53;;
38023;SDS011;23834;48.080;11.682;2023-05-23T03:05:02;5.87;;;5.27;;
38023;SDS011;23834;48.080;11.682;2023-05-23T03:07:29;5.30;;;4.90;;
38023;SDS011;23834;48.080;11.682;2023-05-23T03:09:54;5.73;;;5.23;;
38023;SDS011;23834;48.080;11.682;2023-05-23T03:12:20;6.53;;;5.93;;
38023;SDS011;23834;48.080;11.682;2023-05-23T03:14:45;6.20;;;5.60;;
38023;SDS011;23834;48.080;11.682;2023-05-23T03:17:12;5.53;;;5.00;;
38023;SDS011;23834;48.080;11.682;2023-05-23T03:19:37;7.03;;;5.80;;
38023;SDS011;23834;48.080;11.682;2023-05-23T03:22:02;5.90;;;5.30;;
38023;SDS011;23834;48.080;11.682;2023-05-23T03:24:27;5.93;;;5.43;;
38023;SDS011;23834;48.080;11.682;2023-05-23T03:26:52;6.37;;;5.77;;
38023;SDS011;23834;48.080;11.682;2023-05-23T03:29:18;5.50;;;5.00;;
38023;SDS011;23834;48.080;11.682;2023-05-23T03:31:43;6.13;;;5.53;;
38023;SDS011;23834;48.080;11.682;2023-05-23T03:34:08;5.53;;;5.03;;
38023;SDS011;23834;48.080;11.682;2023-05-23T03:36:33;5.87;;;5.27;;
38023;SDS011;23834;48.080;11.682;2023-05-23T03:38:59;5.97;;;5.47;;
38023;SDS011;23834;48.080;11.682;2023-05-23T03:41:24;6.10;;;5.60;;
38023;SDS011;23834;48.080;11.682;2023-05-23T03:43:50;6.27;;;5.67;;
38023;SDS011;23834;48.080;11.682;2023-05-23T03:46:15;5.80;;;5.40;;
38023;SDS011;23834;48.080;11.682;2023-05-23T03:48:40;5.60;;;5.10;;
38023;SDS011;23834;48.080;11.682;2023-05-23T03:51:06;5.10;;;4.70;;
38023;SDS011;23834;48.080;11.682;2023-05-23T03:53:31;5.90;;;5.40;;
38023;SDS011;23834;48.080;11.682;2023-05-23T03:55:56;6.00;;;5.50;;
38023;SDS011;23834;48.080;11.682;2023-05-23T03:58:21;6.00;;;5.43;;
38023;SDS011;23834;48.080;11.682;2023-05-23T04:00:46;5.13;;;4.70;;
38023;SDS011;23834;48.080;11.682;2023-05-23T04:03:12;6.80;;;6.10;;
38023;SDS011;23834;48.080;11.682;2023-05-23T04:05:41;5.70;;;5.20;;
38023;SDS011;23834;48.080;11.682;2023-05-23T04:08:06;5.60;;;5.10;;
38023;SDS011;23834;48.080;11.682;2023-05-23T04:10:32;5.60;;;5.10;;
38023;SDS011;23834;48.080;11.682;2023-05-23T04:12:57;5.40;;;4.90;;
38023;SDS011;23834;48.080;11.682;2023-05-23T04:15:22;5.50;;;5.10;;
38023;SDS011;23834;48.080;11.682;2023-05-23T04:17:48;5.43;;;5.03;;
38023;SDS011;23834;48.080;11.682;2023-05-23T04:20:15;5.87;;;5.37;;
38023;SDS011;23834;48.080;11.682;2023-05-23T04:22:40;6.20;;;5.60;;
38023;SDS011;23834;48.080;11.682;2023-05-23T04:25:05;6.00;;;5.37;;
38023;SDS011;23834;48.080;11.682;2023-05-23T04:27:31;5.50;;;5.00;;
38023;SDS011;23834;48.080;11.682;2023-05-23T04:29:56;5.63;;;5.13;;
38023;SDS011;23834;48.080;11.682;2023-05-23T04:32:22;5.93;;;5.43;;
38023;SDS011;23834;48.080;11.682;2023-05-23T04:34:47;5.57;;;5.07;;
38023;SDS011;23834;48.080;11.682;2023-05-23T04:37:13;5.77;;;5.27;;
38023;SDS011;23834;48.080;11.682;2023-05-23T04:39:38;5.63;;;5.23;;
38023;SDS011;23834;48.080;11.682;2023-05-23T04:42:04;5.77;;;5.27;;
38023;SDS011;23834;48.080;11.682;2023-05-23T04:44:31;5.70;;;5.30;;
38023;SDS011;23834;48.080;11.682;2023-05-23T04:46:57;5.73;;;5.13;;
38023;SDS011;23834;48.080;11.682;2023-05-23T04:49:22;5.97;;;5.37;;
38023;SDS011;23834;48.080;11.682;2023-05-23T04:51:48;6.40;;;5.90;;
38023;SDS011;23834;48.080;11.682;2023-05-23T04:54:13;6.30;;;5.70;;
38023;SDS011;23834;48.080;11.682;2023-05-23T04:56:39;5.63;;;5.13;;
38023;SDS011;23834;48.080;11.682;2023-05-23T04:59:04;5.73;;;5.23;;
38023;SDS011;23834;48.080;11.682;2023-05-23T05:01:32;6.00;;;5.50;;
38023;SDS011;23834;48.080;11.682;2023-05-23T05:03:58;5.47;;;4.97;;
38023;SDS011;23834;48.080;11.682;2023-05-23T05:06:23;5.90;;;5.40;;
38023;SDS011;23834;48.080;11.682;2023-05-23T05:08:48;6.10;;;5.60;;
38023;SDS011;23834;48.080;11.682;2023-05-23T05:11:14;6.10;;;5.50;;
38023;SDS011;23834;48.080;11.682;2023-05-23T05:13:39;5.90;;;5.40;;
38023;SDS011;23834;48.080;11.682;2023-05-23T05:16:04;5.57;;;5.10;;
38023;SDS011;23834;48.080;11.682;2023-05-23T05:18:30;5.90;;;5.30;;
38023;SDS011;23834;48.080;11.682;2023-05-23T05:20:55;6.20;;;5.60;;
38023;SDS011;23834;48.080;11.682;2023-05-23T05:23:25;6.33;;;5.80;;
38023;SDS011;23834;48.080;11.682;2023-05-23T05:25:52;5.80;;;5.30;;
38023;SDS011;23834;48.080;11.682;2023-05-23T05:28:18;6.17;;;5.67;;
38023;SDS011;23834;48.080;11.682;2023-05-23T05:30:43;6.40;;;5.80;;
38023;SDS011;23834;48.080;11.682;2023-05-23T05:33:10;6.23;;;5.63;;
38023;SDS011;23834;48.080;11.682;2023-05-23T05:35:35;6.00;;;5.50;;
38023;SDS011;23834;48.080;11.682;2023-05-23T05:38:02;5.83;;;5.37;;
38023;SDS011;23834;48.080;11.682;2023-05-23T05:40:28;4.93;;;4.40;;
38023;SDS011;23834;48.080;11.682;2023-05-23T05:42:53;5.80;;;5.30;;
38023;SDS011;23834;48.080;11.682;2023-05-23T05:45:19;5.80;;;5.30;;
38023;SDS011;23834;48.080;11.682;2023-05-23T05:47:44;6.20;;;5.60;;
38023;SDS011;23834;48.080;11.682;2023-05-23T05:50:09;5.77;;;5.27;;
38023;SDS011;23834;48.080;11.682;2023-05-23T05:52:35;6.10;;;5.50;;
38023;SDS011;23834;48.080;11.682;2023-05-23T05:55:04;5.80;;;5.30;;
38023;SDS011;23834;48.080;11.682;2023-05-23T05:57:30;5.83;;;5.33;;
38023;SDS011;23834;48.080;11.682;2023-05-23T05:59:55;6.83;;;6.10;;
38023;SDS011;23834;48.080;11.682;2023-05-23T06:02:21;8.70;;;5.70;;
38023;SDS011;23834;48.080;11.682;2023-05-23T06:04:46;5.30;;;4.83;;
38023;SDS011;23834;48.080;11.682;2023-05-23T06:07:11;6.80;;;6.10;;
38023;SDS011;23834;48.080;11.682;2023-05-23T06:09:36;5.90;;;5.50;;
38023;SDS011;23834;48.080;11.682;2023-05-23T06:12:02;6.50;;;5.80;;
38023;SDS011;23834;48.080;11.682;2023-05-23T06:14:27;6.37;;;5.77;;
38023;SDS011;23834;48.080;11.682;2023-05-23T06:16:52;6.57;;;5.90;;
38023;SDS011;23834;48.080;11.682;2023-05-23T06:19:17;7.23;;;6.47;;
38023;SDS011;23834;48.080;11.682;2023-05-23T06:21:43;6.83;;;6.23;;
38023;SDS011;23834;48.080;11.682;2023-05-23T06:24:08;6.03;;;5.50;;
38023;SDS011;23834;48.080;11.682;2023-05-23T06:26:33;6.87;;;6.17;;
38023;SDS011;23834;48.080;11.682;2023-05-23T06:28:58;6.60;;;5.43;;
38023;SDS011;23834;48.080;11.682;2023-05-23T06:31:24;6.93;;;6.23;;
38023;SDS011;23834;48.080;11.682;2023-05-23T06:33:49;6.47;;;5.93;;
38023;SDS011;23834;48.080;11.682;2023-05-23T06:36:15;6.67;;;5.53;;
38023;SDS011;23834;48.080;11.682;2023-05-23T06:38:40;6.40;;;5.80;;
38023;SDS011;23834;48.080;11.682;2023-05-23T06:41:05;6.53;;;6.03;;
38023;SDS011;23834;48.080;11.682;2023-05-23T06:43:31;6.83;;;6.23;;
38023;SDS011;23834;48.080;11.682;2023-05-23T06:45:56;7.23;;;6.23;;
38023;SDS011;23834;48.080;11.682;2023-05-23T06:48:21;6.97;;;6.37;;
38023;SDS011;23834;48.080;11.682;2023-05-23T06:50:46;5.77;;;5.27;;
38023;SDS011;23834;48.080;11.682;2023-05-23T06:53:11;6.17;;;5.57;;
38023;SDS011;23834;48.080;11.682;2023-05-23T06:55:37;7.60;;;6.90;;
38023;SDS011;23834;48.080;11.682;2023-05-23T06:58:02;7.27;;;6.63;;
38023;SDS011;23834;48.080;11.682;2023-05-23T07:00:30;7.03;;;6.33;;
38023;SDS011;23834;48.080;11.682;2023-05-23T07:02:55;7.57;;;6.83;;
38023;SDS011;23834;48.080;11.682;2023-05-23T07:05:25;7.47;;;6.77;;
38023;SDS011;23834;48.080;11.682;2023-05-23T07:07:50;6.57;;;6.03;;
38023;SDS011;23834;48.080;11.682;2023-05-23T07:10:15;6.50;;;5.93;;
38023;SDS011;23834;48.080;11.682;2023-05-23T07:12:40;6.70;;;6.10;;
38023;SDS011;23834;48.080;11.682;2023-05-23T07:15:06;6.10;;;5.60;;
38023;SDS011;23834;48.080;11.682;2023-05-23T07:17:31;6.83;;;6.30;;
38023;SDS011;23834;48.080;11.682;2023-05-23T07:19:57;7.00;;;6.40;;
38023;SDS011;23834;48.080;11.682;2023-05-23T07:22:22;7.80;;;6.80;;
38023;SDS011;23834;48.080;11.682;2023-05-23T07:24:47;7.83;;;7.13;;
38023;SDS011;23834;48.080;11.682;2023-05-23T07:27:12;6.90;;;6.10;;
38023;SDS011;23834;48.080;11.682;2023-05-23T07:29:37;7.67;;;6.97;;
38023;SDS011;23834;48.080;11.682;2023-05-23T07:32:03;6.60;;;6.00;;
38023;SDS011;23834;48.080;11.682;2023-05-23T07:34:28;7.07;;;6.47;;
38023;SDS011;23834;48.080;11.682;2023-05-23T07:36:54;7.77;;;7.07;;
38023;SDS011;23834;48.080;11.682;2023-05-23T07:39:19;6.60;;;6.00;;
38023;SDS011;23834;48.080;11.682;2023-05-23T07:41:46;7.90;;;7.10;;
38023;SDS011;23834;48.080;11.682;2023-05-23T07:44:12;7.80;;;7.10;;
38023;SDS011;23834;48.080;11.682;2023-05-23T07:46:37;8.33;;;7.60;;
38023;SDS011;23834;48.080;11.682;2023-05-23T07:49:02;7.73;;;6.93;;
38023;SDS011;23834;48.080;11.682;2023-05-23T07:51:27;7.67;;;6.90;;
38023;SDS011;23834;48.080;11.682;2023-05-23T07:53:52;7.90;;;7.10;;
38023;SDS011;23834;48.080;11.682;2023-05-23T07:56:18;7.40;;;6.70;;
38023;SDS011;23834;48.080;11.682;2023-05-23T07:58:43;7.80;;;7.10;;
38023;SDS011;23834;48.080;11.682;2023-05-23T08:01:08;8.20;;;7.40;;
38023;SDS011;23834;48.080;11.682;2023-05-23T08:03:33;9.27;;;7.30;;
38023;SDS011;23834;48.080;11.682;2023-05-23T08:05:59;7.70;;;6.90;;
38023;SDS011;23834;48.080;11.682;2023-05-23T08:08:24;8.10;;;7.40;;
38023;SDS011;23834;48.080;11.682;2023-05-23T08:10:49;7.90;;;7.10;;
38023;SDS011;23834;48.080;11.682;2023-05-23T08:13:14;7.63;;;6.97;;
38023;SDS011;23834;48.080;11.682;2023-05-23T08:15:40;7.20;;;6.50;;
38023;SDS011;23834;48.080;11.682;2023-05-23T08:18:05;8.30;;;7.50;;
38023;SDS011;23834;48.080;11.682;2023-05-23T08:20:30;8.53;;;7.73;;
38023;SDS011;23834;48.080;11.682;2023-05-23T08:22:59;7.70;;;7.00;;
38023;SDS011;23834;48.080;11.682;2023-05-23T08:25:24;8.80;;;8.00;;
38023;SDS011;23834;48.080;11.682;2023-05-23T08:27:50;8.23;;;7.43;;
38023;SDS011;23834;48.080;11.682;2023-05-23T08:30:15;8.03;;;7.30;;
38023;SDS011;23834;48.080;11.682;2023-05-23T08:32:41;8.50;;;7.80;;
38023;SDS011;23834;48.080;11.682;2023-05-23T08:35:06;8.67;;;7.87;;
38023;SDS011;23834;48.080;11.682;2023-05-23T08:37:31;8.23;;;7.47;;
38023;SDS011;23834;48.080;11.682;2023-05-23T08:39:56;8.30;;;7.60;;
38023;SDS011;23834;48.080;11.682;2023-05-23T08:42:22;8.00;;;7.20;;
38023;SDS011;23834;48.080;11.682;2023-05-23T08:44:47;7.40;;;6.80;;
38023;SDS011;23834;48.080;11.682;2023-05-23T08:47:12;7.70;;;6.90;;
38023;SDS011;23834;48.080;11.682;2023-05-23T08:49:39;8.47;;;7.67;;
38023;SDS011;23834;48.080;11.682;2023-05-23T08:52:05;8.40;;;7.60;;
38023;SDS011;23834;48.080;11.682;2023-05-23T08:54:34;8.80;;;8.00;;
38023;SDS011;23834;48.080;11.682;2023-05-23T08:56:59;8.87;;;7.97;;
38023;SDS011;23834;48.080;11.682;2023-05-23T08:59:26;9.00;;;8.10;;
38023;SDS011;23834;48.080;11.682;2023-05-23T09:01:51;8.13;;;7.10;;
38023;SDS011;23834;48.080;11.682;2023-05-23T09:04:18;8.90;;;7.93;;
38023;SDS011;23834;48.080;11.682;2023-05-23T09:06:43;8.70;;;7.90;;
38023;SDS011;23834;48.080;11.682;2023-05-23T09:09:09;8.90;;;8.10;;
38023;SDS011;23834;48.080;11.682;2023-05-23T09:11:34;8.40;;;7.57;;
38023;SDS011;23834;48.080;11.682;2023-05-23T09:13:59;8.70;;;7.97;;
38023;SDS011;23834;48.080;11.682;2023-05-23T09:16:30;8.17;;;7.37;;
38023;SDS011;23834;48.080;11.682;2023-05-23T09:18:55;8.05;;;7.25;;
38023;SDS011;23834;48.080;11.682;2023-05-23T09:21:22;7.80;;;7.00;;
38023;SDS011;23834;48.080;11.682;2023-05-23T09:23:48;8.73;;;7.83;;
38023;SDS011;23834;48.080;11.682;2023-05-23T09:26:14;8.80;;;7.90;;
38023;SDS011;23834;48.080;11.682;2023-05-23T09:28:41;7.90;;;7.20;;
38023;SDS011;23834;48.080;11.682;2023-05-23T09:31:07;9.17;;;8.37;;
38023;SDS011;23834;48.080;11.682;2023-05-23T09:33:37;8.43;;;7.63;;
38023;SDS011;23834;48.080;11.682;2023-05-23T09:36:03;7.63;;;6.90;;
38023;SDS011;23834;48.080;11.682;2023-05-23T09:38:29;8.20;;;7.40;;
38023;SDS011;23834;48.080;11.682;2023-05-23T09:40:54;8.60;;;7.90;;
38023;SDS011;23834;48.080;11.682;2023-05-23T09:43:22;8.83;;;8.10;;
38023;SDS011;23834;48.080;11.682;2023-05-23T09:45:47;8.43;;;7.63;;
38023;SDS011;23834;48.080;11.682;2023-05-23T09:48:12;8.70;;;7.90;;
38023;SDS011;23834;48.080;11.682;2023-05-23T09:50:38;8.07;;;7.27;;
38023;SDS011;23834;48.080;11.682;2023-05-23T09:53:03;9.50;;;8.60;;
38023;SDS011;23834;48.080;11.682;2023-05-23T09:55:29;8.27;;;7.17;;
38023;SDS011;23834;48.080;11.682;2023-05-23T09:57:54;8.17;;;7.43;;
38023;SDS011;23834;48.080;11.682;2023-05-23T10:00:23;8.83;;;8.03;;
38023;SDS011;23834;48.080;11.682;2023-05-23T10:05:44;8.03;;;7.33;;
38023;SDS011;23834;48.080;11.682;2023-05-23T10:08:13;8.43;;;7.67;;
38023;SDS011;23834;48.080;11.682;2023-05-23T10:13:17;8.50;;;7.80;;
38023;SDS011;23834;48.080;11.682;2023-05-23T10:15:43;9.17;;;8.27;;
38023;SDS011;23834;48.080;11.682;2023-05-23T10:20:33;9.53;;;8.47;;
38023;SDS011;23834;48.080;11.682;2023-05-23T10:23:00;9.40;;;8.40;;
38023;SDS011;23834;48.080;11.682;2023-05-23T10:25:25;10.90;;;8.80;;
38023;SDS011;23834;48.080;11.682;2023-05-23T10:27:52;8.83;;;7.93;;
38023;SDS011;23834;48.080;11.682;2023-05-23T10:30:20;8.20;;;7.40;;
38023;SDS011;23834;48.080;11.682;2023-05-23T10:32:46;9.70;;;8.80;;
38023;SDS011;23834;48.080;11.682;2023-05-23T10:35:26;9.80;;;8.80;;
38023;SDS011;23834;48.080;11.682;2023-05-23T10:45:33;8.90;;;8.00;;
38023;SDS011;23834;48.080;11.682;2023-05-23T10:48:03;9.13;;;8.30;;
38023;SDS011;23834;48.080;11.682;2023-05-23T10:50:40;9.97;;;9.10;;
38023;SDS011;23834;48.080;11.682;2023-05-23T10:53:06;9.53;;;8.70;;
38023;SDS011;23834;48.080;11.682;2023-05-23T10:55:34;9.83;;;8.83;;
38023;SDS011;23834;48.080;11.682;2023-05-23T11:00:33;9.70;;;8.70;;
38023;SDS011;23834;48.080;11.682;2023-05-23T11:02:59;9.00;;;8.10;;
38023;SDS011;23834;48.080;11.682;2023-05-23T11:05:26;10.10;;;9.10;;
38023;SDS011;23834;48.080;11.682;2023-05-23T11:08:08;8.77;;;7.67;;
38023;SDS011;23834;48.080;11.682;2023-05-23T11:10:53;9.10;;;8.20;;
38023;SDS011;23834;48.080;11.682;2023-05-23T11:13:21;9.70;;;8.73;;
38023;SDS011;23834;48.080;11.682;2023-05-23T11:15:47;9.17;;;8.30;;
38023;SDS011;23834;48.080;11.682;2023-05-23T11:18:19;8.53;;;7.70;;
38023;SDS011;23834;48.080;11.682;2023-05-23T11:20:44;9.83;;;8.83;;
38023;SDS011;23834;48.080;11.682;2023-05-23T11:23:11;9.27;;;8.03;;
38023;SDS011;23834;48.080;11.682;2023-05-23T11:28:05;9.23;;;7.80;;
38023;SDS011;23834;48.080;11.682;2023-05-23T11:30:31;9.70;;;8.70;;
38023;SDS011;23834;48.080;11.682;2023-05-23T11:32:57;9.00;;;8.10;;
38023;SDS011;23834;48.080;11.682;2023-05-23T11:35:23;9.53;;;8.53;;
38023;SDS011;23834;48.080;11.682;2023-05-23T11:37:48;10.70;;;8.20;;
38023;SDS011;23834;48.080;11.682;2023-05-23T11:43:09;9.00;;;8.20;;
38023;SDS011;23834;48.080;11.682;2023-05-23T11:45:36;8.00;;;7.20;;
38023;SDS011;23834;48.080;11.682;2023-05-23T11:48:11;9.03;;;8.23;;
38023;SDS011;23834;48.080;11.682;2023-05-23T11:50:50;9.23;;;8.40;;
38023;SDS011;23834;48.080;11.682;2023-05-23T11:53:17;9.00;;;8.10;;
38023;SDS011;23834;48.080;11.682;2023-05-23T11:55:47;10.30;;;9.30;;
38023;SDS011;23834;48.080;11.682;2023-05-23T11:58:13;9.90;;;8.90;;
38023;SDS011;23834;48.080;11.682;2023-05-23T12:00:44;9.40;;;8.50;;
38023;SDS011;23834;48.080;11.682;2023-05-23T12:03:10;10.03;;;8.50;;
38023;SDS011;23834;48.080;11.682;2023-05-23T12:05:36;9.47;;;8.57;;
38023;SDS011;23834;48.080;11.682;2023-05-23T12:08:01;9.03;;;8.13;;
38023;SDS011;23834;48.080;11.682;2023-05-23T12:10:26;8.57;;;7.80;;
38023;SDS011;23834;48.080;11.682;2023-05-23T12:12:51;9.70;;;8.80;;
38023;SDS011;23834;48.080;11.682;2023-05-23T12:15:17;9.97;;;8.97;;
38023;SDS011;23834;48.080;11.682;2023-05-23T12:17:45;8.60;;;7.70;;
38023;SDS011;23834;48.080;11.682;2023-05-23T12:20:10;9.00;;;8.20;;
38023;SDS011;23834;48.080;11.682;2023-05-23T12:22:36;10.03;;;9.13;;
38023;SDS011;23834;48.080;11.682;2023-05-23T12:25:01;8.80;;;7.90;;
38023;SDS011;23834;48.080;11.682;2023-05-23T12:27:27;8.90;;;7.97;;
38023;SDS011;23834;48.080;11.682;2023-05-23T12:30:03;8.27;;;7.53;;
38023;SDS011;23834;48.080;11.682;2023-05-23T12:32:28;9.20;;;8.30;;
38023;SDS011;23834;48.080;11.682;2023-05-23T12:34:53;9.10;;;8.20;;
38023;SDS011;23834;48.080;11.682;2023-05-23T12:37:18;9.00;;;7.80;;
38023;SDS011;23834;48.080;11.682;2023-05-23T12:39:43;9.13;;;8.03;;
38023;SDS011;23834;48.080;11.682;2023-05-23T12:42:09;9.50;;;8.60;;
38023;SDS011;23834;48.080;11.682;2023-05-23T12:44:35;9.50;;;8.60;;
38023;SDS011;23834;48.080;11.682;2023-05-23T12:47:01;8.23;;;7.50;;
38023;SDS011;23834;48.080;11.682;2023-05-23T12:49:26;9.43;;;8.53;;
38023;SDS011;23834;48.080;11.682;2023-05-23T12:51:52;9.97;;;8.60;;
38023;SDS011;23834;48.080;11.682;2023-05-23T12:54:17;8.50;;;7.70;;
38023;SDS011;23834;48.080;11.682;2023-05-23T12:56:42;8.97;;;8.07;;
38023;SDS011;23834;48.080;11.682;2023-05-23T12:59:07;9.27;;;8.37;;
38023;SDS011;23834;48.080;11.682;2023-05-23T13:01:33;9.13;;;8.07;;
38023;SDS011;23834;48.080;11.682;2023-05-23T13:03:58;7.93;;;7.13;;
38023;SDS011;23834;48.080;11.682;2023-05-23T13:06:23;8.60;;;7.80;;
38023;SDS011;23834;48.080;11.682;2023-05-23T13:08:48;9.63;;;8.13;;
38023;SDS011;23834;48.080;11.682;2023-05-23T13:11:15;8.50;;;7.70;;
38023;SDS011;23834;48.080;11.682;2023-05-23T13:13:40;8.83;;;7.93;;
38023;SDS011;23834;48.080;11.682;2023-05-23T13:16:05;9.83;;;7.73;;
38023;SDS011;23834;48.080;11.682;2023-05-23T13:18:31;8.30;;;7.50;;
38023;SDS011;23834;48.080;11.682;2023-05-23T13:20:56;8.63;;;7.70;;
38023;SDS011;23834;48.080;11.682;2023-05-23T13:23:21;9.87;;;8.07;;
38023;SDS011;23834;48.080;11.682;2023-05-23T13:25:46;8.10;;;7.30;;
38023;SDS011;23834;48.080;11.682;2023-05-23T13:28:14;10.23;;;8.30;;
38023;SDS011;23834;48.080;11.682;2023-05-23T13:30:39;8.83;;;8.03;;
38023;SDS011;23834;48.080;11.682;2023-05-23T13:33:05;9.57;;;8.47;;
38023;SDS011;23834;48.080;11.682;2023-05-23T13:35:30;8.27;;;7.43;;
38023;SDS011;23834;48.080;11.682;2023-05-23T13:37:55;8.63;;;7.83;;
38023;SDS011;23834;48.080;11.682;2023-05-23T13:40:20;8.73;;;7.80;;
38023;SDS011;23834;48.080;11.682;2023-05-23T13:42:46;8.57;;;7.67;;
38023;SDS011;23834;48.080;11.682;2023-05-23T13:45:12;8.33;;;7.63;;
38023;SDS011;23834;48.080;11.682;2023-05-23T13:47:37;8.10;;;7.40;;
38023;SDS011;23834;48.080;11.682;2023-05-23T13:50:03;8.70;;;7.60;;
38023;SDS011;23834;48.080;11.682;2023-05-23T13:52:29;8.15;;;7.35;;
38023;SDS011;23834;48.080;11.682;2023-05-23T13:54:54;8.95;;;7.70;;
38023;SDS011;23834;48.080;11.682;2023-05-23T13:57:20;9.60;;;8.60;;
38023;SDS011;23834;48.080;11.682;2023-05-23T13:59:46;9.30;;;8.10;;
38023;SDS011;23834;48.080;11.682;2023-05-23T14:02:11;8.50;;;7.27;;
38023;SDS011;23834;48.080;11.682;2023-05-23T14:04:36;9.50;;;8.57;;
38023;SDS011;23834;48.080;11.682;2023-05-23T14:07:01;9.03;;;8.23;;
38023;SDS011;23834;48.080;11.682;2023-05-23T14:09:27;8.50;;;7.70;;
38023;SDS011;23834;48.080;11.682;2023-05-23T14:11:52;8.90;;;8.00;;
38023;SDS011;23834;48.080;11.682;2023-05-23T14:14:17;8.70;;;7.80;;
38023;SDS011;23834;48.080;11.682;2023-05-23T14:16:43;9.00;;;8.20;;
38023;SDS011;23834;48.080;11.682;2023-05-23T14:19:08;9.33;;;8.40;;
38023;SDS011;23834;48.080;11.682;2023-05-23T14:21:33;8.93;;;8.03;;
38023;SDS011;23834;48.080;11.682;2023-05-23T14:23:58;9.50;;;8.60;;
38023;SDS011;23834;48.080;11.682;2023-05-23T14:26:24;8.90;;;8.10;;
38023;SDS011;23834;48.080;11.682;2023-05-23T14:28:49;8.30;;;7.60;;
38023;SDS011;23834;48.080;11.682;2023-05-23T14:31:15;9.17;;;8.27;;
38023;SDS011;23834;48.080;11.682;2023-05-23T14:33:40;7.90;;;7.10;;
38023;SDS011;23834;48.080;11.682;2023-05-23T14:36:05;9.10;;;8.13;;
38023;SDS011;23834;48.080;11.682;2023-05-23T14:38:31;8.07;;;7.37;;
38023;SDS011;23834;48.080;11.682;2023-05-23T14:40:56;8.70;;;7.80;;
38023;SDS011;23834;48.080;11.682;2023-05-23T14:43:22;9.60;;;7.30;;
38023;SDS011;23834;48.080;11.682;2023-05-23T14:45:48;9.77;;;8.13;;
38023;SDS011;23834;48.080;11.682;2023-05-23T14:48:13;8.43;;;7.63;;
38023;SDS011;23834;48.080;11.682;2023-05-23T14:50:38;8.40;;;7.60;;
38023;SDS011;23834;48.080;11.682;2023-05-23T14:53:04;8.87;;;7.97;;
38023;SDS011;23834;48.080;11.682;2023-05-23T14:55:29;8.87;;;8.07;;